sensor_id;sensor_type;location;lat;lon;timestamp;P1;durP1;ratioP1;P2;durP2;ratioP2
58567;SDS011;44354;46.192;-1.076;2022-07-29T00:02:03;347.02;;;327.00;;
58567;SDS011;44354;46.192;-1.076;2022-07-29T00:04:28;342.27;;;322.73;;
58567;SDS011;44354;46.192;-1.076;2022-07-29T00:06:54;342.35;;;322.52;;
58567;SDS011;44354;46.192;-1.076;2022-07-29T00:09:19;335.98;;;316.73;;
58567;SDS011;44354;46.192;-1.076;2022-07-29T00:11:45;350.90;;;330.80;;
58567;SDS011;44354;46.192;-1.076;2022-07-29T00:14:11;346.65;;;326.92;;
58567;SDS011;44354;46.192;-1.076;2022-07-29T00:16:36;355.73;;;335.45;;
58567;SDS011;44354;46.192;-1.076;2022-07-29T00:19:02;368.90;;;347.38;;
58567;SDS011;44354;46.192;-1.076;2022-07-29T00:21:28;377.73;;;355.75;;
58567;SDS011;44354;46.192;-1.076;2022-07-29T00:23:54;394.67;;;371.45;;
58567;SDS011;44354;46.192;-1.076;2022-07-29T00:26:20;398.05;;;374.92;;
58567;SDS011;44354;46.192;-1.076;2022-07-29T00:28:46;390.92;;;367.75;;
58567;SDS011;44354;46.192;-1.076;2022-07-29T00:31:12;414.98;;;390.38;;
58567;SDS011;44354;46.192;-1.076;2022-07-29T00:33:37;426.10;;;400.90;;
58567;SDS011;44354;46.192;-1.076;2022-07-29T00:36:03;1999.90;;;999.90;;
58567;SDS011;44354;46.192;-1.076;2022-07-29T00:38:29;1999.90;;;999.90;;
58567;SDS011;44354;46.192;-1.076;2022-07-29T00:40:54;1999.90;;;999.90;;
58567;SDS011;44354;46.192;-1.076;2022-07-29T00:43:20;1999.90;;;999.90;;
58567;SDS011;44354;46.192;-1.076;2022-07-29T00:45:46;1999.90;;;999.90;;
58567;SDS011;44354;46.192;-1.076;2022-07-29T00:48:11;1999.90;;;999.90;;
58567;SDS011;44354;46.192;-1.076;2022-07-29T00:50:37;1999.90;;;999.90;;
58567;SDS011;44354;46.192;-1.076;2022-07-29T00:53:04;1999.90;;;999.90;;
58567;SDS011;44354;46.192;-1.076;2022-07-29T00:55:32;1999.90;;;999.90;;
58567;SDS011;44354;46.192;-1.076;2022-07-29T00:57:58;1999.90;;;999.90;;
58567;SDS011;44354;46.192;-1.076;2022-07-29T01:00:25;1999.90;;;999.90;;
58567;SDS011;44354;46.192;-1.076;2022-07-29T01:02:52;1999.90;;;999.90;;
58567;SDS011;44354;46.192;-1.076;2022-07-29T01:05:19;1999.90;;;999.90;;
58567;SDS011;44354;46.192;-1.076;2022-07-29T01:07:47;1999.90;;;999.90;;
58567;SDS011;44354;46.192;-1.076;2022-07-29T01:10:17;1999.90;;;999.90;;
58567;SDS011;44354;46.192;-1.076;2022-07-29T01:12:46;1999.90;;;999.90;;
58567;SDS011;44354;46.192;-1.076;2022-07-29T01:15:13;1999.90;;;999.90;;
58567;SDS011;44354;46.192;-1.076;2022-07-29T01:17:44;1999.90;;;999.90;;
58567;SDS011;44354;46.192;-1.076;2022-07-29T01:20:19;1999.90;;;999.90;;
58567;SDS011;44354;46.192;-1.076;2022-07-29T01:30:51;1999.90;;;999.90;;
58567;SDS011;44354;46.192;-1.076;2022-07-29T01:33:19;438.67;;;412.00;;
58567;SDS011;44354;46.192;-1.076;2022-07-29T01:36:10;367.63;;;345.92;;
58567;SDS011;44354;46.192;-1.076;2022-07-29T01:38:40;375.00;;;353.02;;
58567;SDS011;44354;46.192;-1.076;2022-07-29T01:41:12;377.05;;;355.15;;
58567;SDS011;44354;46.192;-1.076;2022-07-29T01:43:53;370.30;;;348.42;;
58567;SDS011;44354;46.192;-1.076;2022-07-29T01:46:25;392.20;;;369.02;;
58567;SDS011;44354;46.192;-1.076;2022-07-29T01:48:58;385.73;;;363.23;;
58567;SDS011;44354;46.192;-1.076;2022-07-29T01:51:51;362.30;;;340.58;;
58567;SDS011;44354;46.192;-1.076;2022-07-29T01:54:24;360.40;;;339.20;;
58567;SDS011;44354;46.192;-1.076;2022-07-29T01:56:51;398.23;;;374.98;;
58567;SDS011;44354;46.192;-1.076;2022-07-29T01:59:20;423.05;;;398.05;;
58567;SDS011;44354;46.192;-1.076;2022-07-29T02:01:46;426.75;;;400.63;;
58567;SDS011;44354;46.192;-1.076;2022-07-29T02:04:15;434.17;;;408.60;;
58567;SDS011;44354;46.192;-1.076;2022-07-29T02:06:42;438.63;;;412.40;;
58567;SDS011;44354;46.192;-1.076;2022-07-29T02:09:09;444.40;;;417.92;;
58567;SDS011;44354;46.192;-1.076;2022-07-29T02:11:38;457.38;;;429.95;;
58567;SDS011;44354;46.192;-1.076;2022-07-29T02:14:04;415.02;;;390.15;;
58567;SDS011;44354;46.192;-1.076;2022-07-29T02:16:32;381.02;;;358.35;;
58567;SDS011;44354;46.192;-1.076;2022-07-29T02:19:00;387.63;;;364.75;;
58567;SDS011;44354;46.192;-1.076;2022-07-29T02:21:27;392.38;;;369.70;;
58567;SDS011;44354;46.192;-1.076;2022-07-29T02:23:54;366.02;;;344.77;;
58567;SDS011;44354;46.192;-1.076;2022-07-29T02:26:24;379.35;;;357.45;;
58567;SDS011;44354;46.192;-1.076;2022-07-29T02:28:52;390.63;;;367.50;;
58567;SDS011;44354;46.192;-1.076;2022-07-29T02:31:23;390.02;;;367.15;;
58567;SDS011;44354;46.192;-1.076;2022-07-29T02:33:51;392.55;;;369.48;;
58567;SDS011;44354;46.192;-1.076;2022-07-29T02:36:18;394.92;;;371.23;;
58567;SDS011;44354;46.192;-1.076;2022-07-29T02:38:47;394.08;;;371.08;;
58567;SDS011;44354;46.192;-1.076;2022-07-29T02:41:22;389.95;;;366.38;;
58567;SDS011;44354;46.192;-1.076;2022-07-29T02:43:53;397.98;;;374.55;;
58567;SDS011;44354;46.192;-1.076;2022-07-29T02:46:24;379.90;;;357.92;;
58567;SDS011;44354;46.192;-1.076;2022-07-29T02:49:02;390.60;;;367.75;;
58567;SDS011;44354;46.192;-1.076;2022-07-29T02:54:25;446.27;;;419.95;;
58567;SDS011;44354;46.192;-1.076;2022-07-29T02:56:51;386.15;;;363.10;;
58567;SDS011;44354;46.192;-1.076;2022-07-29T02:59:21;397.20;;;373.67;;
58567;SDS011;44354;46.192;-1.076;2022-07-29T03:01:51;394.05;;;370.83;;
58567;SDS011;44354;46.192;-1.076;2022-07-29T03:04:19;395.90;;;372.23;;
58567;SDS011;44354;46.192;-1.076;2022-07-29T03:06:46;405.35;;;381.40;;
58567;SDS011;44354;46.192;-1.076;2022-07-29T03:09:14;402.95;;;378.42;;
58567;SDS011;44354;46.192;-1.076;2022-07-29T03:11:41;442.58;;;416.23;;
58567;SDS011;44354;46.192;-1.076;2022-07-29T03:14:08;434.48;;;407.60;;
58567;SDS011;44354;46.192;-1.076;2022-07-29T03:16:35;441.23;;;415.08;;
58567;SDS011;44354;46.192;-1.076;2022-07-29T03:19:01;408.75;;;384.85;;
58567;SDS011;44354;46.192;-1.076;2022-07-29T03:21:29;392.10;;;368.95;;
58567;SDS011;44354;46.192;-1.076;2022-07-29T03:23:55;415.35;;;390.85;;
58567;SDS011;44354;46.192;-1.076;2022-07-29T03:26:21;422.08;;;397.45;;
58567;SDS011;44354;46.192;-1.076;2022-07-29T03:28:46;422.15;;;397.05;;
58567;SDS011;44354;46.192;-1.076;2022-07-29T03:31:12;410.42;;;386.05;;
58567;SDS011;44354;46.192;-1.076;2022-07-29T03:33:38;418.52;;;393.75;;
58567;SDS011;44354;46.192;-1.076;2022-07-29T03:36:03;401.63;;;378.27;;
58567;SDS011;44354;46.192;-1.076;2022-07-29T03:38:29;414.58;;;390.25;;
58567;SDS011;44354;46.192;-1.076;2022-07-29T03:41:04;432.08;;;406.50;;
58567;SDS011;44354;46.192;-1.076;2022-07-29T03:43:34;438.70;;;412.27;;
58567;SDS011;44354;46.192;-1.076;2022-07-29T03:46:03;402.25;;;378.88;;
58567;SDS011;44354;46.192;-1.076;2022-07-29T03:48:32;383.10;;;360.90;;
58567;SDS011;44354;46.192;-1.076;2022-07-29T03:51:00;399.27;;;375.85;;
58567;SDS011;44354;46.192;-1.076;2022-07-29T03:53:26;388.95;;;366.35;;
58567;SDS011;44354;46.192;-1.076;2022-07-29T03:55:53;393.35;;;369.92;;
58567;SDS011;44354;46.192;-1.076;2022-07-29T03:58:24;397.00;;;373.58;;
58567;SDS011;44354;46.192;-1.076;2022-07-29T04:00:52;400.83;;;377.20;;
58567;SDS011;44354;46.192;-1.076;2022-07-29T04:03:20;397.02;;;373.95;;
58567;SDS011;44354;46.192;-1.076;2022-07-29T04:05:57;394.48;;;371.23;;
58567;SDS011;44354;46.192;-1.076;2022-07-29T04:08:26;398.98;;;375.40;;
58567;SDS011;44354;46.192;-1.076;2022-07-29T04:10:53;368.95;;;347.42;;
58567;SDS011;44354;46.192;-1.076;2022-07-29T04:13:19;381.38;;;359.23;;
58567;SDS011;44354;46.192;-1.076;2022-07-29T04:15:45;449.38;;;422.55;;
58567;SDS011;44354;46.192;-1.076;2022-07-29T04:18:10;431.55;;;405.77;;
58567;SDS011;44354;46.192;-1.076;2022-07-29T04:20:36;427.25;;;400.27;;
58567;SDS011;44354;46.192;-1.076;2022-07-29T04:23:02;369.58;;;347.42;;
58567;SDS011;44354;46.192;-1.076;2022-07-29T04:25:27;424.00;;;398.95;;
58567;SDS011;44354;46.192;-1.076;2022-07-29T04:27:53;1999.90;;;999.90;;
58567;SDS011;44354;46.192;-1.076;2022-07-29T04:30:28;1999.90;;;999.90;;
58567;SDS011;44354;46.192;-1.076;2022-07-29T04:32:55;1999.90;;;999.90;;
58567;SDS011;44354;46.192;-1.076;2022-07-29T04:35:20;1999.90;;;999.90;;
58567;SDS011;44354;46.192;-1.076;2022-07-29T04:37:46;1999.90;;;999.90;;
58567;SDS011;44354;46.192;-1.076;2022-07-29T04:40:12;1999.90;;;999.90;;
58567;SDS011;44354;46.192;-1.076;2022-07-29T04:42:38;1999.90;;;999.90;;
58567;SDS011;44354;46.192;-1.076;2022-07-29T04:45:04;1999.90;;;999.90;;
58567;SDS011;44354;46.192;-1.076;2022-07-29T04:47:30;1999.90;;;999.90;;
58567;SDS011;44354;46.192;-1.076;2022-07-29T04:49:56;1999.90;;;999.90;;
58567;SDS011;44354;46.192;-1.076;2022-07-29T04:52:22;1999.90;;;999.90;;
58567;SDS011;44354;46.192;-1.076;2022-07-29T04:54:48;1999.90;;;999.90;;
58567;SDS011;44354;46.192;-1.076;2022-07-29T04:57:14;1999.90;;;999.90;;
58567;SDS011;44354;46.192;-1.076;2022-07-29T04:59:39;1999.90;;;999.90;;
58567;SDS011;44354;46.192;-1.076;2022-07-29T05:02:05;1999.90;;;999.90;;
58567;SDS011;44354;46.192;-1.076;2022-07-29T05:04:31;1999.90;;;999.90;;
58567;SDS011;44354;46.192;-1.076;2022-07-29T05:06:56;1999.90;;;999.90;;
58567;SDS011;44354;46.192;-1.076;2022-07-29T05:09:22;1999.90;;;999.90;;
58567;SDS011;44354;46.192;-1.076;2022-07-29T05:11:48;1999.90;;;999.90;;
58567;SDS011;44354;46.192;-1.076;2022-07-29T05:14:14;409.10;;;384.58;;
58567;SDS011;44354;46.192;-1.076;2022-07-29T05:16:40;1607.25;;;850.78;;
58567;SDS011;44354;46.192;-1.076;2022-07-29T05:19:06;1216.85;;;703.65;;
58567;SDS011;44354;46.192;-1.076;2022-07-29T05:21:32;436.33;;;410.13;;
58567;SDS011;44354;46.192;-1.076;2022-07-29T05:23:58;405.92;;;381.67;;
58567;SDS011;44354;46.192;-1.076;2022-07-29T05:26:23;429.85;;;404.27;;
58567;SDS011;44354;46.192;-1.076;2022-07-29T05:28:49;425.08;;;399.85;;
58567;SDS011;44354;46.192;-1.076;2022-07-29T05:31:15;393.33;;;369.85;;
58567;SDS011;44354;46.192;-1.076;2022-07-29T05:33:41;378.10;;;356.30;;
58567;SDS011;44354;46.192;-1.076;2022-07-29T05:36:07;397.73;;;374.45;;
58567;SDS011;44354;46.192;-1.076;2022-07-29T05:38:33;426.75;;;400.88;;
58567;SDS011;44354;46.192;-1.076;2022-07-29T05:40:59;459.75;;;432.17;;
58567;SDS011;44354;46.192;-1.076;2022-07-29T05:43:26;440.20;;;414.13;;
58567;SDS011;44354;46.192;-1.076;2022-07-29T05:45:52;414.60;;;390.13;;
58567;SDS011;44354;46.192;-1.076;2022-07-29T05:48:18;400.48;;;377.17;;
58567;SDS011;44354;46.192;-1.076;2022-07-29T05:50:44;369.13;;;347.38;;
58567;SDS011;44354;46.192;-1.076;2022-07-29T05:53:09;360.95;;;339.45;;
58567;SDS011;44354;46.192;-1.076;2022-07-29T05:55:35;334.75;;;315.27;;
58567;SDS011;44354;46.192;-1.076;2022-07-29T05:58:01;346.25;;;326.23;;
58567;SDS011;44354;46.192;-1.076;2022-07-29T06:00:26;399.10;;;375.30;;
58567;SDS011;44354;46.192;-1.076;2022-07-29T06:02:52;420.33;;;395.15;;
58567;SDS011;44354;46.192;-1.076;2022-07-29T06:05:18;401.55;;;377.42;;
58567;SDS011;44354;46.192;-1.076;2022-07-29T06:07:43;373.67;;;352.25;;
58567;SDS011;44354;46.192;-1.076;2022-07-29T06:10:09;376.92;;;354.73;;
58567;SDS011;44354;46.192;-1.076;2022-07-29T06:12:35;363.13;;;341.77;;
58567;SDS011;44354;46.192;-1.076;2022-07-29T06:15:01;378.80;;;356.60;;
58567;SDS011;44354;46.192;-1.076;2022-07-29T06:17:27;370.73;;;349.45;;
58567;SDS011;44354;46.192;-1.076;2022-07-29T06:19:53;339.42;;;319.92;;
58567;SDS011;44354;46.192;-1.076;2022-07-29T06:22:18;329.77;;;310.63;;
58567;SDS011;44354;46.192;-1.076;2022-07-29T06:24:44;341.13;;;321.35;;
58567;SDS011;44354;46.192;-1.076;2022-07-29T06:27:10;333.23;;;313.98;;
58567;SDS011;44354;46.192;-1.076;2022-07-29T06:29:36;334.77;;;315.35;;
58567;SDS011;44354;46.192;-1.076;2022-07-29T06:32:02;333.42;;;314.13;;
58567;SDS011;44354;46.192;-1.076;2022-07-29T06:34:28;356.50;;;335.05;;
58567;SDS011;44354;46.192;-1.076;2022-07-29T06:36:54;302.13;;;284.77;;
58567;SDS011;44354;46.192;-1.076;2022-07-29T06:39:20;309.17;;;291.23;;
58567;SDS011;44354;46.192;-1.076;2022-07-29T06:41:46;340.00;;;319.45;;
58567;SDS011;44354;46.192;-1.076;2022-07-29T06:44:16;349.33;;;328.98;;
58567;SDS011;44354;46.192;-1.076;2022-07-29T06:46:42;339.35;;;319.92;;
58567;SDS011;44354;46.192;-1.076;2022-07-29T06:49:08;341.08;;;321.52;;
58567;SDS011;44354;46.192;-1.076;2022-07-29T06:51:34;347.67;;;327.42;;
58567;SDS011;44354;46.192;-1.076;2022-07-29T06:54:01;328.95;;;310.13;;
58567;SDS011;44354;46.192;-1.076;2022-07-29T06:56:27;338.42;;;318.90;;
58567;SDS011;44354;46.192;-1.076;2022-07-29T06:58:57;367.25;;;346.15;;
58567;SDS011;44354;46.192;-1.076;2022-07-29T07:01:23;332.10;;;312.75;;
58567;SDS011;44354;46.192;-1.076;2022-07-29T07:03:49;325.38;;;305.77;;
58567;SDS011;44354;46.192;-1.076;2022-07-29T07:06:14;319.55;;;301.05;;
58567;SDS011;44354;46.192;-1.076;2022-07-29T07:08:40;342.92;;;322.48;;
58567;SDS011;44354;46.192;-1.076;2022-07-29T07:11:06;307.20;;;289.30;;
58567;SDS011;44354;46.192;-1.076;2022-07-29T07:13:32;338.92;;;319.23;;
58567;SDS011;44354;46.192;-1.076;2022-07-29T07:15:59;338.90;;;319.00;;
58567;SDS011;44354;46.192;-1.076;2022-07-29T07:18:26;336.00;;;316.50;;
58567;SDS011;44354;46.192;-1.076;2022-07-29T07:20:52;345.92;;;325.05;;
58567;SDS011;44354;46.192;-1.076;2022-07-29T07:23:18;340.95;;;320.60;;
58567;SDS011;44354;46.192;-1.076;2022-07-29T07:25:44;334.48;;;314.83;;
58567;SDS011;44354;46.192;-1.076;2022-07-29T07:28:10;356.70;;;335.67;;
58567;SDS011;44354;46.192;-1.076;2022-07-29T07:30:36;336.02;;;316.60;;
58567;SDS011;44354;46.192;-1.076;2022-07-29T07:33:02;331.05;;;311.50;;
58567;SDS011;44354;46.192;-1.076;2022-07-29T07:35:28;323.63;;;304.85;;
58567;SDS011;44354;46.192;-1.076;2022-07-29T07:37:55;302.95;;;285.35;;
58567;SDS011;44354;46.192;-1.076;2022-07-29T07:40:21;325.70;;;306.75;;
58567;SDS011;44354;46.192;-1.076;2022-07-29T07:42:46;374.50;;;352.20;;
58567;SDS011;44354;46.192;-1.076;2022-07-29T07:45:12;461.42;;;432.98;;
58567;SDS011;44354;46.192;-1.076;2022-07-29T07:47:38;522.80;;;490.00;;
58567;SDS011;44354;46.192;-1.076;2022-07-29T07:50:05;453.85;;;426.25;;
58567;SDS011;44354;46.192;-1.076;2022-07-29T07:52:32;484.80;;;455.08;;
58567;SDS011;44354;46.192;-1.076;2022-07-29T07:54:58;444.75;;;418.27;;
58567;SDS011;44354;46.192;-1.076;2022-07-29T07:57:24;442.33;;;415.58;;
58567;SDS011;44354;46.192;-1.076;2022-07-29T07:59:50;469.23;;;440.13;;
58567;SDS011;44354;46.192;-1.076;2022-07-29T08:02:16;454.23;;;426.27;;
58567;SDS011;44354;46.192;-1.076;2022-07-29T08:04:41;499.52;;;468.67;;
58567;SDS011;44354;46.192;-1.076;2022-07-29T08:07:07;490.38;;;459.77;;
58567;SDS011;44354;46.192;-1.076;2022-07-29T08:09:33;458.20;;;430.42;;
58567;SDS011;44354;46.192;-1.076;2022-07-29T08:12:00;492.58;;;462.27;;
58567;SDS011;44354;46.192;-1.076;2022-07-29T08:14:31;506.48;;;475.00;;
58567;SDS011;44354;46.192;-1.076;2022-07-29T08:16:56;498.42;;;467.55;;
58567;SDS011;44354;46.192;-1.076;2022-07-29T08:19:22;532.13;;;498.98;;
58567;SDS011;44354;46.192;-1.076;2022-07-29T08:21:48;504.00;;;472.70;;
58567;SDS011;44354;46.192;-1.076;2022-07-29T08:24:13;542.63;;;508.23;;
58567;SDS011;44354;46.192;-1.076;2022-07-29T08:26:57;555.75;;;521.00;;
58567;SDS011;44354;46.192;-1.076;2022-07-29T08:29:23;596.28;;;557.10;;
58567;SDS011;44354;46.192;-1.076;2022-07-29T08:31:49;581.95;;;543.88;;
58567;SDS011;44354;46.192;-1.076;2022-07-29T08:34:14;557.80;;;521.90;;
58567;SDS011;44354;46.192;-1.076;2022-07-29T08:36:40;588.30;;;550.22;;
58567;SDS011;44354;46.192;-1.076;2022-07-29T08:39:06;585.78;;;547.17;;
58567;SDS011;44354;46.192;-1.076;2022-07-29T08:41:31;616.60;;;576.83;;
58567;SDS011;44354;46.192;-1.076;2022-07-29T08:43:57;601.90;;;561.78;;
58567;SDS011;44354;46.192;-1.076;2022-07-29T08:46:23;608.50;;;568.42;;
58567;SDS011;44354;46.192;-1.076;2022-07-29T08:48:48;620.80;;;578.50;;
58567;SDS011;44354;46.192;-1.076;2022-07-29T08:51:16;562.45;;;526.30;;
58567;SDS011;44354;46.192;-1.076;2022-07-29T08:53:44;588.17;;;549.28;;
58567;SDS011;44354;46.192;-1.076;2022-07-29T08:56:13;589.38;;;551.10;;
58567;SDS011;44354;46.192;-1.076;2022-07-29T08:58:41;551.55;;;516.17;;
58567;SDS011;44354;46.192;-1.076;2022-07-29T09:01:07;620.75;;;579.00;;
58567;SDS011;44354;46.192;-1.076;2022-07-29T09:03:36;618.33;;;577.78;;
58567;SDS011;44354;46.192;-1.076;2022-07-29T09:06:02;605.85;;;566.08;;
58567;SDS011;44354;46.192;-1.076;2022-07-29T09:08:30;592.58;;;553.65;;
58567;SDS011;44354;46.192;-1.076;2022-07-29T09:10:57;580.88;;;543.28;;
58567;SDS011;44354;46.192;-1.076;2022-07-29T09:13:25;557.53;;;521.60;;
58567;SDS011;44354;46.192;-1.076;2022-07-29T09:15:51;581.85;;;543.53;;
58567;SDS011;44354;46.192;-1.076;2022-07-29T09:18:33;547.17;;;511.58;;
58567;SDS011;44354;46.192;-1.076;2022-07-29T09:21:00;580.33;;;542.45;;
58567;SDS011;44354;46.192;-1.076;2022-07-29T09:28:58;590.90;;;552.05;;
58567;SDS011;44354;46.192;-1.076;2022-07-29T09:31:32;622.83;;;581.42;;
58567;SDS011;44354;46.192;-1.076;2022-07-29T09:33:59;547.70;;;512.60;;
58567;SDS011;44354;46.192;-1.076;2022-07-29T09:36:25;521.38;;;488.30;;
58567;SDS011;44354;46.192;-1.076;2022-07-29T09:38:58;543.97;;;508.27;;
58567;SDS011;44354;46.192;-1.076;2022-07-29T09:41:28;469.50;;;440.25;;
58567;SDS011;44354;46.192;-1.076;2022-07-29T09:43:57;506.08;;;473.40;;
58567;SDS011;44354;46.192;-1.076;2022-07-29T09:46:25;520.83;;;488.20;;
58567;SDS011;44354;46.192;-1.076;2022-07-29T09:49:10;529.88;;;496.38;;
58567;SDS011;44354;46.192;-1.076;2022-07-29T09:54:20;558.60;;;522.92;;
58567;SDS011;44354;46.192;-1.076;2022-07-29T09:56:51;534.35;;;499.75;;
58567;SDS011;44354;46.192;-1.076;2022-07-29T09:59:17;487.45;;;456.80;;
58567;SDS011;44354;46.192;-1.076;2022-07-29T10:01:45;546.42;;;510.90;;
58567;SDS011;44354;46.192;-1.076;2022-07-29T10:04:11;481.08;;;451.23;;
58567;SDS011;44354;46.192;-1.076;2022-07-29T10:06:54;508.73;;;477.58;;
58567;SDS011;44354;46.192;-1.076;2022-07-29T10:09:22;455.77;;;427.27;;
58567;SDS011;44354;46.192;-1.076;2022-07-29T10:12:09;474.48;;;444.92;;
58567;SDS011;44354;46.192;-1.076;2022-07-29T10:14:41;481.35;;;451.90;;
58567;SDS011;44354;46.192;-1.076;2022-07-29T10:17:07;415.83;;;390.60;;
58567;SDS011;44354;46.192;-1.076;2022-07-29T10:19:35;409.55;;;385.08;;
58567;SDS011;44354;46.192;-1.076;2022-07-29T10:22:03;450.35;;;422.77;;
58567;SDS011;44354;46.192;-1.076;2022-07-29T10:24:31;476.25;;;447.42;;
58567;SDS011;44354;46.192;-1.076;2022-07-29T10:26:58;429.98;;;404.27;;
58567;SDS011;44354;46.192;-1.076;2022-07-29T10:29:26;448.55;;;420.85;;
58567;SDS011;44354;46.192;-1.076;2022-07-29T10:40:00;391.55;;;368.17;;
58567;SDS011;44354;46.192;-1.076;2022-07-29T10:42:58;484.83;;;454.65;;
58567;SDS011;44354;46.192;-1.076;2022-07-29T10:45:39;491.48;;;459.95;;
58567;SDS011;44354;46.192;-1.076;2022-07-29T10:48:05;465.00;;;436.17;;
58567;SDS011;44354;46.192;-1.076;2022-07-29T10:53:20;451.77;;;423.58;;
58567;SDS011;44354;46.192;-1.076;2022-07-29T10:55:46;438.50;;;411.58;;
58567;SDS011;44354;46.192;-1.076;2022-07-29T10:58:15;411.15;;;386.58;;
58567;SDS011;44354;46.192;-1.076;2022-07-29T11:00:43;597.28;;;558.13;;
58567;SDS011;44354;46.192;-1.076;2022-07-29T11:06:12;660.58;;;615.55;;
58567;SDS011;44354;46.192;-1.076;2022-07-29T11:08:39;639.55;;;595.47;;
58567;SDS011;44354;46.192;-1.076;2022-07-29T11:14:01;647.45;;;603.45;;
58567;SDS011;44354;46.192;-1.076;2022-07-29T11:16:31;602.55;;;561.63;;
58567;SDS011;44354;46.192;-1.076;2022-07-29T11:19:32;632.45;;;589.30;;
58567;SDS011;44354;46.192;-1.076;2022-07-29T11:21:58;576.53;;;538.38;;
58567;SDS011;44354;46.192;-1.076;2022-07-29T11:24:25;581.50;;;541.50;;
58567;SDS011;44354;46.192;-1.076;2022-07-29T11:27:05;609.92;;;570.33;;
58567;SDS011;44354;46.192;-1.076;2022-07-29T11:29:56;559.88;;;523.55;;
58567;SDS011;44354;46.192;-1.076;2022-07-29T11:32:23;605.78;;;565.80;;
58567;SDS011;44354;46.192;-1.076;2022-07-29T11:35:15;606.95;;;566.25;;
58567;SDS011;44354;46.192;-1.076;2022-07-29T11:43:45;517.22;;;485.35;;
58567;SDS011;44354;46.192;-1.076;2022-07-29T11:46:18;438.40;;;412.38;;
58567;SDS011;44354;46.192;-1.076;2022-07-29T11:49:11;469.05;;;440.33;;
58567;SDS011;44354;46.192;-1.076;2022-07-29T11:51:37;474.23;;;444.58;;
58567;SDS011;44354;46.192;-1.076;2022-07-29T11:54:04;413.65;;;388.73;;
58567;SDS011;44354;46.192;-1.076;2022-07-29T11:56:31;428.50;;;402.88;;
58567;SDS011;44354;46.192;-1.076;2022-07-29T11:59:06;430.88;;;404.50;;
58567;SDS011;44354;46.192;-1.076;2022-07-29T12:01:34;424.63;;;398.52;;
58567;SDS011;44354;46.192;-1.076;2022-07-29T12:04:04;419.98;;;393.77;;
58567;SDS011;44354;46.192;-1.076;2022-07-29T12:06:31;450.90;;;422.77;;
58567;SDS011;44354;46.192;-1.076;2022-07-29T12:08:58;458.23;;;429.25;;
58567;SDS011;44354;46.192;-1.076;2022-07-29T12:11:23;396.83;;;372.98;;
58567;SDS011;44354;46.192;-1.076;2022-07-29T12:13:50;373.88;;;352.05;;
58567;SDS011;44354;46.192;-1.076;2022-07-29T12:16:16;391.35;;;368.48;;
58567;SDS011;44354;46.192;-1.076;2022-07-29T12:18:54;448.38;;;421.02;;
58567;SDS011;44354;46.192;-1.076;2022-07-29T12:21:20;444.58;;;417.02;;
58567;SDS011;44354;46.192;-1.076;2022-07-29T12:23:52;454.02;;;426.17;;
58567;SDS011;44354;46.192;-1.076;2022-07-29T12:26:18;477.50;;;447.15;;
58567;SDS011;44354;46.192;-1.076;2022-07-29T12:28:44;453.27;;;425.42;;
58567;SDS011;44354;46.192;-1.076;2022-07-29T12:31:13;502.60;;;470.67;;
58567;SDS011;44354;46.192;-1.076;2022-07-29T12:33:39;459.65;;;430.77;;
58567;SDS011;44354;46.192;-1.076;2022-07-29T12:36:05;404.30;;;380.63;;
58567;SDS011;44354;46.192;-1.076;2022-07-29T12:38:31;391.48;;;368.80;;
58567;SDS011;44354;46.192;-1.076;2022-07-29T12:40:59;427.40;;;401.55;;
58567;SDS011;44354;46.192;-1.076;2022-07-29T12:43:25;418.67;;;393.77;;
58567;SDS011;44354;46.192;-1.076;2022-07-29T12:45:52;467.75;;;438.95;;
58567;SDS011;44354;46.192;-1.076;2022-07-29T12:48:40;519.28;;;484.63;;
58567;SDS011;44354;46.192;-1.076;2022-07-29T12:51:06;435.08;;;409.15;;
58567;SDS011;44354;46.192;-1.076;2022-07-29T12:53:33;456.50;;;428.70;;
58567;SDS011;44354;46.192;-1.076;2022-07-29T12:56:00;426.02;;;400.98;;
58567;SDS011;44354;46.192;-1.076;2022-07-29T12:58:36;412.90;;;388.38;;
58567;SDS011;44354;46.192;-1.076;2022-07-29T13:01:04;447.48;;;419.95;;
58567;SDS011;44354;46.192;-1.076;2022-07-29T13:06:33;420.10;;;395.17;;
58567;SDS011;44354;46.192;-1.076;2022-07-29T13:11:33;421.45;;;396.13;;
58567;SDS011;44354;46.192;-1.076;2022-07-29T13:14:00;480.77;;;448.67;;
58567;SDS011;44354;46.192;-1.076;2022-07-29T13:16:26;509.90;;;476.50;;
58567;SDS011;44354;46.192;-1.076;2022-07-29T13:19:05;421.88;;;397.10;;
58567;SDS011;44354;46.192;-1.076;2022-07-29T13:21:33;472.20;;;441.75;;
58567;SDS011;44354;46.192;-1.076;2022-07-29T13:23:59;401.30;;;377.67;;
58567;SDS011;44354;46.192;-1.076;2022-07-29T13:26:24;466.38;;;436.75;;
58567;SDS011;44354;46.192;-1.076;2022-07-29T13:28:50;440.40;;;413.13;;
58567;SDS011;44354;46.192;-1.076;2022-07-29T13:31:16;436.40;;;409.73;;
58567;SDS011;44354;46.192;-1.076;2022-07-29T13:33:41;457.40;;;428.58;;
58567;SDS011;44354;46.192;-1.076;2022-07-29T13:36:07;442.77;;;415.90;;
58567;SDS011;44354;46.192;-1.076;2022-07-29T13:38:33;447.20;;;420.38;;
58567;SDS011;44354;46.192;-1.076;2022-07-29T13:40:58;482.15;;;451.30;;
58567;SDS011;44354;46.192;-1.076;2022-07-29T13:43:25;449.15;;;420.50;;
58567;SDS011;44354;46.192;-1.076;2022-07-29T13:45:51;418.48;;;393.77;;
58567;SDS011;44354;46.192;-1.076;2022-07-29T13:48:17;400.30;;;377.20;;
58567;SDS011;44354;46.192;-1.076;2022-07-29T13:50:42;478.67;;;447.23;;
58567;SDS011;44354;46.192;-1.076;2022-07-29T13:53:08;375.25;;;352.88;;
58567;SDS011;44354;46.192;-1.076;2022-07-29T13:55:34;491.77;;;459.05;;
58567;SDS011;44354;46.192;-1.076;2022-07-29T13:57:59;425.33;;;400.23;;
58567;SDS011;44354;46.192;-1.076;2022-07-29T14:00:25;416.15;;;390.95;;
58567;SDS011;44354;46.192;-1.076;2022-07-29T14:02:51;431.30;;;405.05;;
58567;SDS011;44354;46.192;-1.076;2022-07-29T14:05:17;408.77;;;383.60;;
58567;SDS011;44354;46.192;-1.076;2022-07-29T14:07:43;370.98;;;349.10;;
58567;SDS011;44354;46.192;-1.076;2022-07-29T14:10:08;395.48;;;371.90;;
58567;SDS011;44354;46.192;-1.076;2022-07-29T14:12:34;405.42;;;381.20;;
58567;SDS011;44354;46.192;-1.076;2022-07-29T14:15:00;431.05;;;404.77;;
58567;SDS011;44354;46.192;-1.076;2022-07-29T14:17:26;409.25;;;384.45;;
58567;SDS011;44354;46.192;-1.076;2022-07-29T14:19:52;435.00;;;408.52;;
58567;SDS011;44354;46.192;-1.076;2022-07-29T14:22:17;418.33;;;393.50;;
58567;SDS011;44354;46.192;-1.076;2022-07-29T14:24:43;438.45;;;411.73;;
58567;SDS011;44354;46.192;-1.076;2022-07-29T14:27:09;490.83;;;460.10;;
58567;SDS011;44354;46.192;-1.076;2022-07-29T14:29:35;493.00;;;462.48;;
58567;SDS011;44354;46.192;-1.076;2022-07-29T14:32:01;625.80;;;584.20;;
58567;SDS011;44354;46.192;-1.076;2022-07-29T14:34:27;569.25;;;532.10;;
58567;SDS011;44354;46.192;-1.076;2022-07-29T14:36:52;564.90;;;528.28;;